Beale AFB, California
Current Conditions -  °F | °C
As of 6:16 PM on Saturday 25 Oct 2014 (Local Time) from KBAB Reporting Station
Haze Haze  
Wind Chill: 64°   Ceiling: 4900
Heat Index: 64°   Visibility: 6mi
Dew Point: 57°   Wind: 17mph
Humidity: 77%   Direction: 180°S
Pressure: 30.01"   Gusts: NA
Location:  39.11°N, 121.36°W
Report Text: KBAB 260116Z AUTO 18015KT 6SM HZ BKN049 OVC075 18/14 A3001 RMK AO2 RAB0110E0116 $
Loading
Personal Weather Stations






























Interactive Weather Map
Tropical Storm Tracking
New forecast layout! Learn more

10-Day Weather Forecast

Advertisements
Track Severe Weather on mobile